sensor_id;sensor_type;location;lat;lon;timestamp;temperature;humidity
11639;DHT22;5875;35.940;126.892;2022-12-17T00:00:14;-1.00;99.90
11639;DHT22;5875;35.940;126.892;2022-12-17T00:03:00;-1.00;99.90
11639;DHT22;5875;35.940;126.892;2022-12-17T00:05:45;-0.90;99.90
11639;DHT22;5875;35.940;126.892;2022-12-17T00:08:30;-0.70;99.90
11639;DHT22;5875;35.940;126.892;2022-12-17T00:11:17;-0.60;99.90
11639;DHT22;5875;35.940;126.892;2022-12-17T00:14:02;-0.60;99.90
11639;DHT22;5875;35.940;126.892;2022-12-17T00:16:47;-0.40;99.90
11639;DHT22;5875;35.940;126.892;2022-12-17T00:19:32;-0.20;99.90
11639;DHT22;5875;35.940;126.892;2022-12-17T00:22:18;-0.20;99.90
11639;DHT22;5875;35.940;126.892;2022-12-17T00:25:23;-0.10;99.90
11639;DHT22;5875;35.940;126.892;2022-12-17T00:28:13;0.10;99.90
11639;DHT22;5875;35.940;126.892;2022-12-17T00:30:58;0.30;99.90
11639;DHT22;5875;35.940;126.892;2022-12-17T00:33:45;0.30;99.90
11639;DHT22;5875;35.940;126.892;2022-12-17T00:36:47;0.40;99.90
11639;DHT22;5875;35.940;126.892;2022-12-17T00:39:32;0.50;99.90
11639;DHT22;5875;35.940;126.892;2022-12-17T00:42:17;0.80;99.90
11639;DHT22;5875;35.940;126.892;2022-12-17T00:45:03;1.20;99.90
11639;DHT22;5875;35.940;126.892;2022-12-17T00:47:48;1.30;99.90
11639;DHT22;5875;35.940;126.892;2022-12-17T00:50:33;1.50;99.90
11639;DHT22;5875;35.940;126.892;2022-12-17T00:53:19;1.60;99.90
11639;DHT22;5875;35.940;126.892;2022-12-17T00:56:04;1.70;99.90
11639;DHT22;5875;35.940;126.892;2022-12-17T00:58:49;1.70;99.90
11639;DHT22;5875;35.940;126.892;2022-12-17T01:01:34;1.90;99.90
11639;DHT22;5875;35.940;126.892;2022-12-17T01:04:19;2.10;99.90
11639;DHT22;5875;35.940;126.892;2022-12-17T01:07:04;2.30;99.90
11639;DHT22;5875;35.940;126.892;2022-12-17T01:09:49;2.40;99.90
11639;DHT22;5875;35.940;126.892;2022-12-17T01:12:34;2.50;99.90
11639;DHT22;5875;35.940;126.892;2022-12-17T01:15:19;2.60;99.90
11639;DHT22;5875;35.940;126.892;2022-12-17T01:18:04;2.70;99.90
11639;DHT22;5875;35.940;126.892;2022-12-17T01:20:56;2.80;99.90
11639;DHT22;5875;35.940;126.892;2022-12-17T01:23:41;3.10;99.90
11639;DHT22;5875;35.940;126.892;2022-12-17T01:26:26;3.20;99.90
11639;DHT22;5875;35.940;126.892;2022-12-17T01:29:11;2.90;99.90
11639;DHT22;5875;35.940;126.892;2022-12-17T01:31:56;2.80;99.90
11639;DHT22;5875;35.940;126.892;2022-12-17T01:34:41;2.70;99.90
11639;DHT22;5875;35.940;126.892;2022-12-17T01:37:26;2.60;99.90
11639;DHT22;5875;35.940;126.892;2022-12-17T01:40:11;2.60;99.90
11639;DHT22;5875;35.940;126.892;2022-12-17T01:42:56;2.50;99.90
11639;DHT22;5875;35.940;126.892;2022-12-17T01:45:44;2.60;99.90
11639;DHT22;5875;35.940;126.892;2022-12-17T01:48:39;2.80;99.90
11639;DHT22;5875;35.940;126.892;2022-12-17T01:51:26;3.50;99.90
11639;DHT22;5875;35.940;126.892;2022-12-17T01:54:11;4.20;99.90
11639;DHT22;5875;35.940;126.892;2022-12-17T01:56:57;4.40;99.90
11639;DHT22;5875;35.940;126.892;2022-12-17T01:59:55;4.60;99.90
11639;DHT22;5875;35.940;126.892;2022-12-17T02:02:41;4.90;99.90
11639;DHT22;5875;35.940;126.892;2022-12-17T02:11:43;5.40;92.60
11639;DHT22;5875;35.940;126.892;2022-12-17T02:14:45;5.40;78.40
11639;DHT22;5875;35.940;126.892;2022-12-17T02:17:43;5.30;71.00
11639;DHT22;5875;35.940;126.892;2022-12-17T02:20:37;5.60;75.10
11639;DHT22;5875;35.940;126.892;2022-12-17T02:26:45;5.50;66.30
11639;DHT22;5875;35.940;126.892;2022-12-17T02:29:43;5.10;67.80
11639;DHT22;5875;35.940;126.892;2022-12-17T02:32:50;4.90;64.30
11639;DHT22;5875;35.940;126.892;2022-12-17T02:38:29;4.80;62.70
11639;DHT22;5875;35.940;126.892;2022-12-17T02:41:23;4.60;61.20
11639;DHT22;5875;35.940;126.892;2022-12-17T02:44:10;4.50;60.70
11639;DHT22;5875;35.940;126.892;2022-12-17T02:46:57;4.40;61.40
11639;DHT22;5875;35.940;126.892;2022-12-17T02:49:43;4.20;62.30
11639;DHT22;5875;35.940;126.892;2022-12-17T02:52:29;4.10;62.50
11639;DHT22;5875;35.940;126.892;2022-12-17T02:55:15;3.90;65.10
11639;DHT22;5875;35.940;126.892;2022-12-17T02:58:00;3.80;61.50
11639;DHT22;5875;35.940;126.892;2022-12-17T03:00:45;3.80;64.00
11639;DHT22;5875;35.940;126.892;2022-12-17T03:03:30;3.80;65.80
11639;DHT22;5875;35.940;126.892;2022-12-17T03:06:15;3.70;64.20
11639;DHT22;5875;35.940;126.892;2022-12-17T03:09:00;3.70;64.50
11639;DHT22;5875;35.940;126.892;2022-12-17T03:11:45;3.70;67.30
11639;DHT22;5875;35.940;126.892;2022-12-17T03:14:30;3.70;67.10
11639;DHT22;5875;35.940;126.892;2022-12-17T03:17:15;3.70;67.30
11639;DHT22;5875;35.940;126.892;2022-12-17T03:20:00;3.70;67.90
11639;DHT22;5875;35.940;126.892;2022-12-17T03:22:45;3.60;64.70
11639;DHT22;5875;35.940;126.892;2022-12-17T03:25:30;3.60;65.10
11639;DHT22;5875;35.940;126.892;2022-12-17T03:28:15;3.60;67.00
11639;DHT22;5875;35.940;126.892;2022-12-17T03:31:00;3.60;67.60
11639;DHT22;5875;35.940;126.892;2022-12-17T03:33:46;3.60;67.60
11639;DHT22;5875;35.940;126.892;2022-12-17T03:36:31;3.40;62.30
11639;DHT22;5875;35.940;126.892;2022-12-17T03:39:16;3.50;63.50
11639;DHT22;5875;35.940;126.892;2022-12-17T03:42:01;3.50;63.50
11639;DHT22;5875;35.940;126.892;2022-12-17T03:44:46;3.40;62.40
11639;DHT22;5875;35.940;126.892;2022-12-17T03:47:31;3.30;63.00
11639;DHT22;5875;35.940;126.892;2022-12-17T03:50:16;3.10;62.30
11639;DHT22;5875;35.940;126.892;2022-12-17T03:53:03;3.10;67.40
11639;DHT22;5875;35.940;126.892;2022-12-17T03:55:48;3.10;69.90
11639;DHT22;5875;35.940;126.892;2022-12-17T03:58:34;3.10;72.10
11639;DHT22;5875;35.940;126.892;2022-12-17T04:01:18;3.20;76.10
11639;DHT22;5875;35.940;126.892;2022-12-17T04:04:03;3.30;80.30
11639;DHT22;5875;35.940;126.892;2022-12-17T04:06:49;3.30;83.80
11639;DHT22;5875;35.940;126.892;2022-12-17T04:09:34;3.00;79.50
11639;DHT22;5875;35.940;126.892;2022-12-17T04:12:18;3.00;85.70
11639;DHT22;5875;35.940;126.892;2022-12-17T04:15:04;3.20;90.60
11639;DHT22;5875;35.940;126.892;2022-12-17T04:17:49;3.20;91.70
11639;DHT22;5875;35.940;126.892;2022-12-17T04:20:34;3.10;91.20
11639;DHT22;5875;35.940;126.892;2022-12-17T04:23:19;3.10;91.80
11639;DHT22;5875;35.940;126.892;2022-12-17T04:26:04;3.00;92.70
11639;DHT22;5875;35.940;126.892;2022-12-17T04:28:50;3.00;93.60
11639;DHT22;5875;35.940;126.892;2022-12-17T04:31:34;3.00;95.40
11639;DHT22;5875;35.940;126.892;2022-12-17T04:34:36;2.90;96.70
11639;DHT22;5875;35.940;126.892;2022-12-17T04:37:22;2.80;98.00
11639;DHT22;5875;35.940;126.892;2022-12-17T04:40:09;2.80;99.30
11639;DHT22;5875;35.940;126.892;2022-12-17T04:42:54;2.70;99.10
11639;DHT22;5875;35.940;126.892;2022-12-17T04:45:40;2.50;98.10
11639;DHT22;5875;35.940;126.892;2022-12-17T04:48:24;2.50;98.00
11639;DHT22;5875;35.940;126.892;2022-12-17T04:51:09;2.40;97.10
11639;DHT22;5875;35.940;126.892;2022-12-17T04:53:55;2.30;98.50
11639;DHT22;5875;35.940;126.892;2022-12-17T04:56:40;2.20;99.90
11639;DHT22;5875;35.940;126.892;2022-12-17T04:59:25;2.30;99.90
11639;DHT22;5875;35.940;126.892;2022-12-17T05:02:10;2.20;99.90
11639;DHT22;5875;35.940;126.892;2022-12-17T05:04:55;2.20;99.90
11639;DHT22;5875;35.940;126.892;2022-12-17T05:07:40;2.20;99.90
11639;DHT22;5875;35.940;126.892;2022-12-17T05:10:25;2.20;99.90
11639;DHT22;5875;35.940;126.892;2022-12-17T05:13:10;2.20;99.90
11639;DHT22;5875;35.940;126.892;2022-12-17T05:15:56;2.20;99.90
11639;DHT22;5875;35.940;126.892;2022-12-17T05:18:41;2.20;99.90
11639;DHT22;5875;35.940;126.892;2022-12-17T05:21:26;2.20;99.90
11639;DHT22;5875;35.940;126.892;2022-12-17T05:24:11;2.20;99.90
11639;DHT22;5875;35.940;126.892;2022-12-17T05:26:56;2.20;99.90
11639;DHT22;5875;35.940;126.892;2022-12-17T05:29:41;2.20;99.90
11639;DHT22;5875;35.940;126.892;2022-12-17T05:32:26;2.10;99.90
11639;DHT22;5875;35.940;126.892;2022-12-17T05:35:11;1.90;99.90
11639;DHT22;5875;35.940;126.892;2022-12-17T05:38:03;1.70;99.90
11639;DHT22;5875;35.940;126.892;2022-12-17T05:40:48;1.50;99.90
11639;DHT22;5875;35.940;126.892;2022-12-17T05:43:34;1.30;99.90
11639;DHT22;5875;35.940;126.892;2022-12-17T05:46:18;1.30;99.90
11639;DHT22;5875;35.940;126.892;2022-12-17T05:49:08;1.40;99.90
11639;DHT22;5875;35.940;126.892;2022-12-17T05:51:53;1.60;99.90
11639;DHT22;5875;35.940;126.892;2022-12-17T05:54:38;1.50;99.90
11639;DHT22;5875;35.940;126.892;2022-12-17T05:57:23;1.50;99.90
11639;DHT22;5875;35.940;126.892;2022-12-17T06:00:09;1.60;99.90
11639;DHT22;5875;35.940;126.892;2022-12-17T06:03:02;1.70;99.90
11639;DHT22;5875;35.940;126.892;2022-12-17T06:05:52;1.50;99.90
11639;DHT22;5875;35.940;126.892;2022-12-17T06:08:37;1.70;99.90
11639;DHT22;5875;35.940;126.892;2022-12-17T06:11:23;1.90;99.90
11639;DHT22;5875;35.940;126.892;2022-12-17T06:14:07;1.90;99.90
11639;DHT22;5875;35.940;126.892;2022-12-17T06:16:53;2.00;99.90
11639;DHT22;5875;35.940;126.892;2022-12-17T06:19:38;2.00;99.90
11639;DHT22;5875;35.940;126.892;2022-12-17T06:22:23;2.10;99.90
11639;DHT22;5875;35.940;126.892;2022-12-17T06:25:08;2.10;99.90
11639;DHT22;5875;35.940;126.892;2022-12-17T06:28:01;2.20;99.90
11639;DHT22;5875;35.940;126.892;2022-12-17T06:30:53;2.20;99.90
11639;DHT22;5875;35.940;126.892;2022-12-17T06:33:39;2.20;99.90
11639;DHT22;5875;35.940;126.892;2022-12-17T06:36:24;2.20;99.90
11639;DHT22;5875;35.940;126.892;2022-12-17T06:39:09;2.10;99.90
11639;DHT22;5875;35.940;126.892;2022-12-17T06:41:55;2.10;99.90
11639;DHT22;5875;35.940;126.892;2022-12-17T06:44:40;2.20;99.90
11639;DHT22;5875;35.940;126.892;2022-12-17T06:47:25;2.20;99.90
11639;DHT22;5875;35.940;126.892;2022-12-17T06:50:10;2.20;99.90
11639;DHT22;5875;35.940;126.892;2022-12-17T06:53:03;2.10;99.90
11639;DHT22;5875;35.940;126.892;2022-12-17T06:55:49;2.10;99.90
11639;DHT22;5875;35.940;126.892;2022-12-17T06:58:35;2.00;99.90
11639;DHT22;5875;35.940;126.892;2022-12-17T07:01:21;1.90;99.90
11639;DHT22;5875;35.940;126.892;2022-12-17T07:04:06;1.90;99.90
11639;DHT22;5875;35.940;126.892;2022-12-17T07:06:51;1.90;99.90
11639;DHT22;5875;35.940;126.892;2022-12-17T07:09:36;1.90;99.90
11639;DHT22;5875;35.940;126.892;2022-12-17T07:12:21;2.00;99.90
11639;DHT22;5875;35.940;126.892;2022-12-17T07:15:07;1.90;99.90
11639;DHT22;5875;35.940;126.892;2022-12-17T07:17:56;2.00;99.90
11639;DHT22;5875;35.940;126.892;2022-12-17T07:20:42;1.90;99.90
11639;DHT22;5875;35.940;126.892;2022-12-17T07:23:27;1.80;99.90
11639;DHT22;5875;35.940;126.892;2022-12-17T07:26:13;1.80;99.90
11639;DHT22;5875;35.940;126.892;2022-12-17T07:28:58;1.80;99.90
11639;DHT22;5875;35.940;126.892;2022-12-17T07:31:43;1.70;99.90
11639;DHT22;5875;35.940;126.892;2022-12-17T07:34:28;1.60;99.90
11639;DHT22;5875;35.940;126.892;2022-12-17T07:37:13;1.60;99.90
11639;DHT22;5875;35.940;126.892;2022-12-17T07:39:58;1.60;99.90
11639;DHT22;5875;35.940;126.892;2022-12-17T07:42:43;1.60;99.90
11639;DHT22;5875;35.940;126.892;2022-12-17T07:45:28;1.50;99.90
11639;DHT22;5875;35.940;126.892;2022-12-17T07:48:13;1.40;99.90
11639;DHT22;5875;35.940;126.892;2022-12-17T07:50:58;1.20;99.90
11639;DHT22;5875;35.940;126.892;2022-12-17T07:53:44;1.20;99.90
11639;DHT22;5875;35.940;126.892;2022-12-17T07:56:29;1.10;99.90
11639;DHT22;5875;35.940;126.892;2022-12-17T07:59:14;1.00;99.90
11639;DHT22;5875;35.940;126.892;2022-12-17T08:01:59;0.90;99.90
11639;DHT22;5875;35.940;126.892;2022-12-17T08:04:44;0.90;99.90
11639;DHT22;5875;35.940;126.892;2022-12-17T08:07:29;0.80;99.90
11639;DHT22;5875;35.940;126.892;2022-12-17T08:10:14;0.80;99.90
11639;DHT22;5875;35.940;126.892;2022-12-17T08:13:06;0.70;99.90
11639;DHT22;5875;35.940;126.892;2022-12-17T08:15:54;0.70;99.90
11639;DHT22;5875;35.940;126.892;2022-12-17T08:18:39;0.60;99.90
11639;DHT22;5875;35.940;126.892;2022-12-17T08:21:24;0.50;99.90
11639;DHT22;5875;35.940;126.892;2022-12-17T08:24:09;0.40;99.90
11639;DHT22;5875;35.940;126.892;2022-12-17T08:26:54;0.40;98.80
11639;DHT22;5875;35.940;126.892;2022-12-17T08:29:39;0.30;97.90
11639;DHT22;5875;35.940;126.892;2022-12-17T08:32:24;0.20;98.00
11639;DHT22;5875;35.940;126.892;2022-12-17T08:35:09;0.10;97.40
11639;DHT22;5875;35.940;126.892;2022-12-17T08:38:01;0.10;97.60
11639;DHT22;5875;35.940;126.892;2022-12-17T08:40:46;0.00;97.20
11639;DHT22;5875;35.940;126.892;2022-12-17T08:43:31;0.00;97.20
11639;DHT22;5875;35.940;126.892;2022-12-17T08:46:16;-0.10;96.60
11639;DHT22;5875;35.940;126.892;2022-12-17T08:49:02;-0.20;95.60
11639;DHT22;5875;35.940;126.892;2022-12-17T08:51:47;-0.30;95.10
11639;DHT22;5875;35.940;126.892;2022-12-17T08:54:32;-0.30;95.30
11639;DHT22;5875;35.940;126.892;2022-12-17T08:57:17;-0.40;94.40
11639;DHT22;5875;35.940;126.892;2022-12-17T09:00:03;-0.40;94.00
11639;DHT22;5875;35.940;126.892;2022-12-17T09:02:48;-0.50;94.00
11639;DHT22;5875;35.940;126.892;2022-12-17T09:05:33;-0.50;93.40
11639;DHT22;5875;35.940;126.892;2022-12-17T09:08:18;-0.60;93.60
11639;DHT22;5875;35.940;126.892;2022-12-17T09:11:03;-0.60;93.60
11639;DHT22;5875;35.940;126.892;2022-12-17T09:13:48;-0.60;93.60
11639;DHT22;5875;35.940;126.892;2022-12-17T09:16:33;-0.70;93.70
11639;DHT22;5875;35.940;126.892;2022-12-17T09:19:18;-0.80;93.10
11639;DHT22;5875;35.940;126.892;2022-12-17T09:22:03;-0.80;93.30
11639;DHT22;5875;35.940;126.892;2022-12-17T09:24:48;-0.80;93.50
11639;DHT22;5875;35.940;126.892;2022-12-17T09:27:33;-0.80;93.70
11639;DHT22;5875;35.940;126.892;2022-12-17T09:30:18;-0.80;94.10
11639;DHT22;5875;35.940;126.892;2022-12-17T09:33:04;-0.80;94.40
11639;DHT22;5875;35.940;126.892;2022-12-17T09:35:49;-0.90;94.10
11639;DHT22;5875;35.940;126.892;2022-12-17T09:38:34;-0.90;94.30
11639;DHT22;5875;35.940;126.892;2022-12-17T09:41:34;-0.90;94.10
11639;DHT22;5875;35.940;126.892;2022-12-17T09:50:33;-0.90;92.70
11639;DHT22;5875;35.940;126.892;2022-12-17T09:56:22;-0.90;91.50
11639;DHT22;5875;35.940;126.892;2022-12-17T09:59:17;-1.00;91.10
11639;DHT22;5875;35.940;126.892;2022-12-17T10:02:12;-0.90;91.00
11639;DHT22;5875;35.940;126.892;2022-12-17T10:05:00;-1.00;90.90
11639;DHT22;5875;35.940;126.892;2022-12-17T10:07:46;-1.00;91.00
11639;DHT22;5875;35.940;126.892;2022-12-17T10:10:32;-1.00;91.00
11639;DHT22;5875;35.940;126.892;2022-12-17T10:13:20;-1.00;91.20
11639;DHT22;5875;35.940;126.892;2022-12-17T10:16:25;-1.10;91.20
11639;DHT22;5875;35.940;126.892;2022-12-17T10:19:35;-1.10;91.10
11639;DHT22;5875;35.940;126.892;2022-12-17T10:22:23;-1.10;91.20
11639;DHT22;5875;35.940;126.892;2022-12-17T10:25:19;-1.10;91.30
11639;DHT22;5875;35.940;126.892;2022-12-17T10:28:09;-1.10;91.10
11639;DHT22;5875;35.940;126.892;2022-12-17T10:30:55;-1.20;90.80
11639;DHT22;5875;35.940;126.892;2022-12-17T10:33:41;-1.20;90.50
11639;DHT22;5875;35.940;126.892;2022-12-17T10:36:28;-1.30;90.30
11639;DHT22;5875;35.940;126.892;2022-12-17T10:39:20;-1.30;90.00
11639;DHT22;5875;35.940;126.892;2022-12-17T10:42:21;-1.30;89.50
11639;DHT22;5875;35.940;126.892;2022-12-17T10:45:32;-1.40;87.80
11639;DHT22;5875;35.940;126.892;2022-12-17T10:48:27;-1.40;87.30
11639;DHT22;5875;35.940;126.892;2022-12-17T10:51:33;-1.50;87.80
11639;DHT22;5875;35.940;126.892;2022-12-17T10:54:32;-1.50;86.90
11639;DHT22;5875;35.940;126.892;2022-12-17T10:57:31;-1.60;87.60
11639;DHT22;5875;35.940;126.892;2022-12-17T11:03:02;-1.80;86.00
11639;DHT22;5875;35.940;126.892;2022-12-17T11:05:51;-1.90;87.00
11639;DHT22;5875;35.940;126.892;2022-12-17T11:08:39;-1.90;87.00
11639;DHT22;5875;35.940;126.892;2022-12-17T11:11:25;-2.00;86.70
11639;DHT22;5875;35.940;126.892;2022-12-17T11:14:11;-2.00;86.60
11639;DHT22;5875;35.940;126.892;2022-12-17T11:17:01;-2.00;87.70
11639;DHT22;5875;35.940;126.892;2022-12-17T11:19:54;-2.00;87.20
11639;DHT22;5875;35.940;126.892;2022-12-17T11:22:54;-2.00;87.00
11639;DHT22;5875;35.940;126.892;2022-12-17T11:25:41;-2.00;86.30
11639;DHT22;5875;35.940;126.892;2022-12-17T11:28:32;-2.00;84.60
11639;DHT22;5875;35.940;126.892;2022-12-17T11:40:47;-2.30;79.60
11639;DHT22;5875;35.940;126.892;2022-12-17T11:43:57;-2.40;82.60
11639;DHT22;5875;35.940;126.892;2022-12-17T11:53:19;-2.60;82.50
11639;DHT22;5875;35.940;126.892;2022-12-17T12:05:33;-2.60;84.40
11639;DHT22;5875;35.940;126.892;2022-12-17T12:08:29;-2.60;83.40
11639;DHT22;5875;35.940;126.892;2022-12-17T12:26:14;-2.40;89.80
11639;DHT22;5875;35.940;126.892;2022-12-17T12:29:29;-2.50;88.10
11639;DHT22;5875;35.940;126.892;2022-12-17T12:32:29;-2.50;89.20
11639;DHT22;5875;35.940;126.892;2022-12-17T12:35:21;-2.50;89.70
11639;DHT22;5875;35.940;126.892;2022-12-17T12:38:23;-2.50;89.30
11639;DHT22;5875;35.940;126.892;2022-12-17T12:47:31;-2.40;91.10
11639;DHT22;5875;35.940;126.892;2022-12-17T12:53:31;-2.40;91.90
11639;DHT22;5875;35.940;126.892;2022-12-17T12:56:33;-2.40;92.10
11639;DHT22;5875;35.940;126.892;2022-12-17T13:05:38;-2.30;93.20
11639;DHT22;5875;35.940;126.892;2022-12-17T13:08:22;-2.40;93.40
11639;DHT22;5875;35.940;126.892;2022-12-17T13:10:50;-2.30;94.30
11639;DHT22;5875;35.940;126.892;2022-12-17T13:15:52;-2.30;95.00
11639;DHT22;5875;35.940;126.892;2022-12-17T13:21:24;-2.20;95.60
11639;DHT22;5875;35.940;126.892;2022-12-17T13:23:51;-2.20;95.50
11639;DHT22;5875;35.940;126.892;2022-12-17T13:29:26;-2.20;95.80
11639;DHT22;5875;35.940;126.892;2022-12-17T13:32:08;-2.10;96.20
11639;DHT22;5875;35.940;126.892;2022-12-17T13:37:28;-2.00;97.00
11639;DHT22;5875;35.940;126.892;2022-12-17T13:40:23;-1.90;97.10
11639;DHT22;5875;35.940;126.892;2022-12-17T13:42:51;-1.90;97.60
11639;DHT22;5875;35.940;126.892;2022-12-17T13:45:22;-1.90;97.70
11639;DHT22;5875;35.940;126.892;2022-12-17T13:47:58;-1.90;97.80
11639;DHT22;5875;35.940;126.892;2022-12-17T13:50:28;-1.90;98.00
11639;DHT22;5875;35.940;126.892;2022-12-17T13:52:55;-1.90;98.20
11639;DHT22;5875;35.940;126.892;2022-12-17T13:55:25;-1.90;98.40
11639;DHT22;5875;35.940;126.892;2022-12-17T13:57:53;-1.90;98.60
11639;DHT22;5875;35.940;126.892;2022-12-17T14:00:29;-1.90;98.80
11639;DHT22;5875;35.940;126.892;2022-12-17T14:02:56;-1.90;99.30
11639;DHT22;5875;35.940;126.892;2022-12-17T14:05:28;-1.80;99.80
11639;DHT22;5875;35.940;126.892;2022-12-17T14:08:01;-1.80;99.80
11639;DHT22;5875;35.940;126.892;2022-12-17T14:10:29;-1.80;99.90
11639;DHT22;5875;35.940;126.892;2022-12-17T14:13:22;-1.80;99.90
11639;DHT22;5875;35.940;126.892;2022-12-17T14:15:50;-1.80;99.90
11639;DHT22;5875;35.940;126.892;2022-12-17T14:18:19;-1.80;99.90
11639;DHT22;5875;35.940;126.892;2022-12-17T14:20:48;-1.80;99.90
11639;DHT22;5875;35.940;126.892;2022-12-17T14:23:27;-1.80;99.90
11639;DHT22;5875;35.940;126.892;2022-12-17T14:25:56;-1.80;99.90
11639;DHT22;5875;35.940;126.892;2022-12-17T14:28:31;-1.80;99.90
11639;DHT22;5875;35.940;126.892;2022-12-17T14:33:34;-1.70;99.90
11639;DHT22;5875;35.940;126.892;2022-12-17T14:36:07;-1.70;99.90
11639;DHT22;5875;35.940;126.892;2022-12-17T14:38:36;-1.70;99.90
11639;DHT22;5875;35.940;126.892;2022-12-17T14:41:12;-1.70;99.90
11639;DHT22;5875;35.940;126.892;2022-12-17T14:43:59;-1.80;99.90
11639;DHT22;5875;35.940;126.892;2022-12-17T14:46:28;-1.90;99.90
11639;DHT22;5875;35.940;126.892;2022-12-17T14:48:58;-2.10;99.90
11639;DHT22;5875;35.940;126.892;2022-12-17T14:51:37;-2.00;99.90
11639;DHT22;5875;35.940;126.892;2022-12-17T14:56:55;-1.90;99.90
11639;DHT22;5875;35.940;126.892;2022-12-17T14:59:37;-1.80;99.90
11639;DHT22;5875;35.940;126.892;2022-12-17T15:02:47;-1.80;99.90
11639;DHT22;5875;35.940;126.892;2022-12-17T15:05:10;-1.80;99.90
11639;DHT22;5875;35.940;126.892;2022-12-17T15:07:38;-1.80;99.90
11639;DHT22;5875;35.940;126.892;2022-12-17T15:10:10;-1.80;99.90
11639;DHT22;5875;35.940;126.892;2022-12-17T15:12:40;-1.80;99.90
11639;DHT22;5875;35.940;126.892;2022-12-17T15:15:12;-1.80;99.90
11639;DHT22;5875;35.940;126.892;2022-12-17T15:17:40;-1.70;99.90
11639;DHT22;5875;35.940;126.892;2022-12-17T15:20:20;-1.70;99.90
11639;DHT22;5875;35.940;126.892;2022-12-17T15:22:47;-1.70;99.90
11639;DHT22;5875;35.940;126.892;2022-12-17T15:25:16;-1.60;99.90
11639;DHT22;5875;35.940;126.892;2022-12-17T15:27:44;-1.60;99.90
11639;DHT22;5875;35.940;126.892;2022-12-17T15:30:16;-1.60;99.90
11639;DHT22;5875;35.940;126.892;2022-12-17T15:32:44;-1.60;99.90
11639;DHT22;5875;35.940;126.892;2022-12-17T15:35:12;-1.60;99.90
11639;DHT22;5875;35.940;126.892;2022-12-17T15:37:40;-1.60;99.90
11639;DHT22;5875;35.940;126.892;2022-12-17T15:40:07;-1.60;99.90
11639;DHT22;5875;35.940;126.892;2022-12-17T15:42:37;-1.60;99.90
11639;DHT22;5875;35.940;126.892;2022-12-17T15:45:22;-1.70;99.60
11639;DHT22;5875;35.940;126.892;2022-12-17T15:47:50;-2.10;96.20
11639;DHT22;5875;35.940;126.892;2022-12-17T15:50:18;-2.20;97.00
11639;DHT22;5875;35.940;126.892;2022-12-17T15:52:45;-2.30;99.00
11639;DHT22;5875;35.940;126.892;2022-12-17T15:55:12;-2.40;98.90
11639;DHT22;5875;35.940;126.892;2022-12-17T15:57:40;-2.40;99.90
11639;DHT22;5875;35.940;126.892;2022-12-17T16:00:08;-2.40;99.90
11639;DHT22;5875;35.940;126.892;2022-12-17T16:02:35;-2.50;99.90
11639;DHT22;5875;35.940;126.892;2022-12-17T16:05:03;-2.60;99.90
11639;DHT22;5875;35.940;126.892;2022-12-17T16:07:30;-2.60;99.90
11639;DHT22;5875;35.940;126.892;2022-12-17T16:09:58;-2.50;99.90
11639;DHT22;5875;35.940;126.892;2022-12-17T16:12:25;-2.40;99.90
11639;DHT22;5875;35.940;126.892;2022-12-17T16:14:52;-2.40;99.90
11639;DHT22;5875;35.940;126.892;2022-12-17T16:17:19;-2.30;99.90
11639;DHT22;5875;35.940;126.892;2022-12-17T16:19:46;-2.20;99.90
11639;DHT22;5875;35.940;126.892;2022-12-17T16:22:13;-2.10;99.90
11639;DHT22;5875;35.940;126.892;2022-12-17T16:24:41;-2.10;99.90
11639;DHT22;5875;35.940;126.892;2022-12-17T16:27:08;-2.00;99.90
11639;DHT22;5875;35.940;126.892;2022-12-17T16:29:35;-2.00;99.90
11639;DHT22;5875;35.940;126.892;2022-12-17T16:32:03;-2.00;99.90
11639;DHT22;5875;35.940;126.892;2022-12-17T16:34:30;-2.00;99.90
11639;DHT22;5875;35.940;126.892;2022-12-17T16:36:57;-2.00;99.90
11639;DHT22;5875;35.940;126.892;2022-12-17T16:39:26;-1.90;99.90
11639;DHT22;5875;35.940;126.892;2022-12-17T16:41:54;-1.90;99.90
11639;DHT22;5875;35.940;126.892;2022-12-17T16:44:21;-1.90;99.90
11639;DHT22;5875;35.940;126.892;2022-12-17T16:46:48;-1.90;99.90
11639;DHT22;5875;35.940;126.892;2022-12-17T16:49:19;-1.90;99.90
11639;DHT22;5875;35.940;126.892;2022-12-17T16:51:49;-1.80;99.90
11639;DHT22;5875;35.940;126.892;2022-12-17T16:54:18;-1.90;99.90
11639;DHT22;5875;35.940;126.892;2022-12-17T16:56:46;-1.80;99.90
11639;DHT22;5875;35.940;126.892;2022-12-17T16:59:15;-1.80;99.90
11639;DHT22;5875;35.940;126.892;2022-12-17T17:01:44;-1.80;99.90
11639;DHT22;5875;35.940;126.892;2022-12-17T17:04:13;-1.80;99.90
11639;DHT22;5875;35.940;126.892;2022-12-17T17:06:46;-1.80;99.90
11639;DHT22;5875;35.940;126.892;2022-12-17T17:09:14;-1.80;99.90
11639;DHT22;5875;35.940;126.892;2022-12-17T17:11:42;-1.80;99.90
11639;DHT22;5875;35.940;126.892;2022-12-17T17:14:10;-1.80;99.90
11639;DHT22;5875;35.940;126.892;2022-12-17T17:16:37;-1.80;99.90
11639;DHT22;5875;35.940;126.892;2022-12-17T17:19:05;-1.80;99.90
11639;DHT22;5875;35.940;126.892;2022-12-17T17:21:40;-1.80;99.90
11639;DHT22;5875;35.940;126.892;2022-12-17T17:24:12;-1.80;99.90
11639;DHT22;5875;35.940;126.892;2022-12-17T17:26:41;-1.80;99.90
11639;DHT22;5875;35.940;126.892;2022-12-17T17:29:08;-1.90;99.90
11639;DHT22;5875;35.940;126.892;2022-12-17T17:31:36;-2.00;99.90
11639;DHT22;5875;35.940;126.892;2022-12-17T17:34:12;-2.00;99.90
11639;DHT22;5875;35.940;126.892;2022-12-17T17:36:39;-1.90;99.90
11639;DHT22;5875;35.940;126.892;2022-12-17T17:39:07;-1.90;99.90
11639;DHT22;5875;35.940;126.892;2022-12-17T17:41:34;-1.90;99.90
11639;DHT22;5875;35.940;126.892;2022-12-17T17:44:06;-2.00;99.90
11639;DHT22;5875;35.940;126.892;2022-12-17T17:46:34;-1.90;99.90
11639;DHT22;5875;35.940;126.892;2022-12-17T17:49:03;-1.80;99.90
11639;DHT22;5875;35.940;126.892;2022-12-17T17:51:33;-1.90;99.90
11639;DHT22;5875;35.940;126.892;2022-12-17T17:54:01;-1.90;99.90
11639;DHT22;5875;35.940;126.892;2022-12-17T17:56:31;-1.80;99.90
11639;DHT22;5875;35.940;126.892;2022-12-17T17:59:12;-1.90;99.90
11639;DHT22;5875;35.940;126.892;2022-12-17T18:01:42;-1.80;99.90
11639;DHT22;5875;35.940;126.892;2022-12-17T18:04:12;-1.80;99.90
11639;DHT22;5875;35.940;126.892;2022-12-17T18:06:41;-1.90;99.90
11639;DHT22;5875;35.940;126.892;2022-12-17T18:09:09;-1.90;99.90
11639;DHT22;5875;35.940;126.892;2022-12-17T18:11:38;-1.90;99.90
11639;DHT22;5875;35.940;126.892;2022-12-17T18:14:07;-1.90;99.90
11639;DHT22;5875;35.940;126.892;2022-12-17T18:17:01;-1.90;99.90
11639;DHT22;5875;35.940;126.892;2022-12-17T18:19:28;-1.90;99.90
11639;DHT22;5875;35.940;126.892;2022-12-17T18:21:55;-1.90;99.90
11639;DHT22;5875;35.940;126.892;2022-12-17T18:24:22;-1.90;99.90
11639;DHT22;5875;35.940;126.892;2022-12-17T18:26:51;-1.90;99.90
11639;DHT22;5875;35.940;126.892;2022-12-17T18:29:21;-1.90;99.90
11639;DHT22;5875;35.940;126.892;2022-12-17T18:31:48;-2.00;99.90